sensor_id;sensor_type;location;lat;lon;timestamp;temperature;humidity
5647;DHT22;2845;48.626;9.362;2023-07-20T00:00:52;20.70;74.50
5647;DHT22;2845;48.626;9.362;2023-07-20T00:03:26;20.70;74.00
5647;DHT22;2845;48.626;9.362;2023-07-20T00:06:00;20.80;73.70
5647;DHT22;2845;48.626;9.362;2023-07-20T00:08:35;20.70;73.70
5647;DHT22;2845;48.626;9.362;2023-07-20T00:11:11;20.60;74.00
5647;DHT22;2845;48.626;9.362;2023-07-20T00:13:46;20.60;74.20
5647;DHT22;2845;48.626;9.362;2023-07-20T00:16:20;20.60;74.60
5647;DHT22;2845;48.626;9.362;2023-07-20T00:18:55;20.70;74.70
5647;DHT22;2845;48.626;9.362;2023-07-20T00:21:29;20.70;74.40
5647;DHT22;2845;48.626;9.362;2023-07-20T00:24:03;20.70;74.60
5647;DHT22;2845;48.626;9.362;2023-07-20T00:26:39;20.60;74.50
5647;DHT22;2845;48.626;9.362;2023-07-20T00:29:13;20.60;74.40
5647;DHT22;2845;48.626;9.362;2023-07-20T00:31:47;20.60;74.50
5647;DHT22;2845;48.626;9.362;2023-07-20T00:34:24;20.60;74.80
5647;DHT22;2845;48.626;9.362;2023-07-20T00:36:58;20.70;75.00
5647;DHT22;2845;48.626;9.362;2023-07-20T00:39:32;20.60;75.00
5647;DHT22;2845;48.626;9.362;2023-07-20T00:42:08;20.50;75.10
5647;DHT22;2845;48.626;9.362;2023-07-20T00:44:42;20.40;75.00
5647;DHT22;2845;48.626;9.362;2023-07-20T00:47:16;20.40;75.20
5647;DHT22;2845;48.626;9.362;2023-07-20T00:49:51;20.30;75.30
5647;DHT22;2845;48.626;9.362;2023-07-20T00:52:25;20.30;75.50
5647;DHT22;2845;48.626;9.362;2023-07-20T00:55:01;20.20;75.40
5647;DHT22;2845;48.626;9.362;2023-07-20T00:57:36;20.70;75.60
5647;DHT22;2845;48.626;9.362;2023-07-20T01:00:11;20.30;75.90
5647;DHT22;2845;48.626;9.362;2023-07-20T01:02:46;20.10;75.80
5647;DHT22;2845;48.626;9.362;2023-07-20T01:05:21;20.10;75.90
5647;DHT22;2845;48.626;9.362;2023-07-20T01:08:03;20.10;76.00
5647;DHT22;2845;48.626;9.362;2023-07-20T01:10:44;20.10;75.60
5647;DHT22;2845;48.626;9.362;2023-07-20T01:13:25;20.00;75.40
5647;DHT22;2845;48.626;9.362;2023-07-20T01:16:01;20.00;75.50
5647;DHT22;2845;48.626;9.362;2023-07-20T01:18:35;20.10;74.70
5647;DHT22;2845;48.626;9.362;2023-07-20T01:21:16;20.10;74.20
5647;DHT22;2845;48.626;9.362;2023-07-20T01:24:10;20.00;74.00
5647;DHT22;2845;48.626;9.362;2023-07-20T01:30:14;20.00;72.20
5647;DHT22;2845;48.626;9.362;2023-07-20T01:32:55;20.10;73.40
5647;DHT22;2845;48.626;9.362;2023-07-20T01:35:32;19.90;73.20
5647;DHT22;2845;48.626;9.362;2023-07-20T01:38:07;20.00;73.20
5647;DHT22;2845;48.626;9.362;2023-07-20T01:40:42;19.90;73.20
5647;DHT22;2845;48.626;9.362;2023-07-20T01:43:17;20.10;73.50
5647;DHT22;2845;48.626;9.362;2023-07-20T01:45:51;19.90;73.30
5647;DHT22;2845;48.626;9.362;2023-07-20T01:48:26;19.90;73.30
5647;DHT22;2845;48.626;9.362;2023-07-20T01:51:01;19.90;73.40
5647;DHT22;2845;48.626;9.362;2023-07-20T01:53:35;20.00;73.60
5647;DHT22;2845;48.626;9.362;2023-07-20T01:56:09;19.90;73.90
5647;DHT22;2845;48.626;9.362;2023-07-20T01:58:44;19.90;73.70
5647;DHT22;2845;48.626;9.362;2023-07-20T02:01:19;19.90;73.90
5647;DHT22;2845;48.626;9.362;2023-07-20T02:03:54;19.80;74.20
5647;DHT22;2845;48.626;9.362;2023-07-20T02:06:28;19.80;74.40
5647;DHT22;2845;48.626;9.362;2023-07-20T02:09:02;19.80;74.40
5647;DHT22;2845;48.626;9.362;2023-07-20T02:11:37;19.70;74.40
5647;DHT22;2845;48.626;9.362;2023-07-20T02:14:11;19.60;74.40
5647;DHT22;2845;48.626;9.362;2023-07-20T02:16:45;19.50;74.50
5647;DHT22;2845;48.626;9.362;2023-07-20T02:19:21;19.40;74.20
5647;DHT22;2845;48.626;9.362;2023-07-20T02:21:55;19.30;74.60
5647;DHT22;2845;48.626;9.362;2023-07-20T02:24:29;19.30;75.10
5647;DHT22;2845;48.626;9.362;2023-07-20T02:27:04;19.20;75.30
5647;DHT22;2845;48.626;9.362;2023-07-20T02:29:40;19.20;75.30
5647;DHT22;2845;48.626;9.362;2023-07-20T02:32:15;19.20;75.20
5647;DHT22;2845;48.626;9.362;2023-07-20T02:34:50;19.30;75.60
5647;DHT22;2845;48.626;9.362;2023-07-20T02:37:25;19.40;75.20
5647;DHT22;2845;48.626;9.362;2023-07-20T02:39:59;19.40;74.90
5647;DHT22;2845;48.626;9.362;2023-07-20T02:42:33;19.30;74.90
5647;DHT22;2845;48.626;9.362;2023-07-20T02:45:08;19.40;75.20
5647;DHT22;2845;48.626;9.362;2023-07-20T02:47:43;19.30;75.00
5647;DHT22;2845;48.626;9.362;2023-07-20T02:50:18;19.30;74.90
5647;DHT22;2845;48.626;9.362;2023-07-20T02:52:52;19.50;75.60
5647;DHT22;2845;48.626;9.362;2023-07-20T02:55:27;19.20;75.60
5647;DHT22;2845;48.626;9.362;2023-07-20T02:58:01;19.10;75.90
5647;DHT22;2845;48.626;9.362;2023-07-20T03:00:35;19.10;75.30
5647;DHT22;2845;48.626;9.362;2023-07-20T03:03:09;19.10;76.20
5647;DHT22;2845;48.626;9.362;2023-07-20T03:05:45;18.90;75.30
5647;DHT22;2845;48.626;9.362;2023-07-20T03:08:20;19.00;75.90
5647;DHT22;2845;48.626;9.362;2023-07-20T03:10:54;19.00;75.70
5647;DHT22;2845;48.626;9.362;2023-07-20T03:13:28;19.00;75.90
5647;DHT22;2845;48.626;9.362;2023-07-20T03:16:03;19.00;75.60
5647;DHT22;2845;48.626;9.362;2023-07-20T03:18:37;18.90;75.60
5647;DHT22;2845;48.626;9.362;2023-07-20T03:21:13;18.80;75.60
5647;DHT22;2845;48.626;9.362;2023-07-20T03:23:47;18.80;76.00
5647;DHT22;2845;48.626;9.362;2023-07-20T03:26:21;18.70;76.60
5647;DHT22;2845;48.626;9.362;2023-07-20T03:28:56;18.60;76.00
5647;DHT22;2845;48.626;9.362;2023-07-20T03:31:30;18.50;75.70
5647;DHT22;2845;48.626;9.362;2023-07-20T03:34:04;18.40;75.80
5647;DHT22;2845;48.626;9.362;2023-07-20T03:36:40;18.30;76.10
5647;DHT22;2845;48.626;9.362;2023-07-20T03:39:14;18.20;76.30
5647;DHT22;2845;48.626;9.362;2023-07-20T03:41:48;18.10;76.60
5647;DHT22;2845;48.626;9.362;2023-07-20T03:44:22;18.10;77.10
5647;DHT22;2845;48.626;9.362;2023-07-20T03:46:58;18.00;77.50
5647;DHT22;2845;48.626;9.362;2023-07-20T03:49:32;18.00;78.20
5647;DHT22;2845;48.626;9.362;2023-07-20T03:52:08;17.90;78.20
5647;DHT22;2845;48.626;9.362;2023-07-20T03:54:42;17.80;78.70
5647;DHT22;2845;48.626;9.362;2023-07-20T03:57:17;17.80;78.80
5647;DHT22;2845;48.626;9.362;2023-07-20T03:59:51;17.80;79.00
5647;DHT22;2845;48.626;9.362;2023-07-20T04:02:25;17.60;78.90
5647;DHT22;2845;48.626;9.362;2023-07-20T04:04:59;17.60;79.20
5647;DHT22;2845;48.626;9.362;2023-07-20T04:07:35;17.60;79.40
5647;DHT22;2845;48.626;9.362;2023-07-20T04:10:09;17.50;79.20
5647;DHT22;2845;48.626;9.362;2023-07-20T04:12:44;17.50;79.50
5647;DHT22;2845;48.626;9.362;2023-07-20T04:15:19;17.40;79.40
5647;DHT22;2845;48.626;9.362;2023-07-20T04:17:53;17.30;80.20
5647;DHT22;2845;48.626;9.362;2023-07-20T04:20:29;17.20;80.00
5647;DHT22;2845;48.626;9.362;2023-07-20T04:23:04;17.20;80.90
5647;DHT22;2845;48.626;9.362;2023-07-20T04:25:39;17.20;80.50
5647;DHT22;2845;48.626;9.362;2023-07-20T04:28:14;17.20;80.80
5647;DHT22;2845;48.626;9.362;2023-07-20T04:30:49;17.20;81.00
5647;DHT22;2845;48.626;9.362;2023-07-20T04:33:24;17.20;80.80
5647;DHT22;2845;48.626;9.362;2023-07-20T04:36:01;17.30;80.80
5647;DHT22;2845;48.626;9.362;2023-07-20T04:38:38;17.30;81.20
5647;DHT22;2845;48.626;9.362;2023-07-20T04:41:12;17.50;81.00
5647;DHT22;2845;48.626;9.362;2023-07-20T04:43:47;17.60;80.50
5647;DHT22;2845;48.626;9.362;2023-07-20T04:46:21;17.70;80.30
5647;DHT22;2845;48.626;9.362;2023-07-20T04:48:56;17.80;80.40
5647;DHT22;2845;48.626;9.362;2023-07-20T04:51:30;17.80;80.20
5647;DHT22;2845;48.626;9.362;2023-07-20T04:54:06;17.80;80.00
5647;DHT22;2845;48.626;9.362;2023-07-20T04:56:40;17.80;80.10
5647;DHT22;2845;48.626;9.362;2023-07-20T04:59:14;17.80;80.30
5647;DHT22;2845;48.626;9.362;2023-07-20T05:01:48;18.00;80.50
5647;DHT22;2845;48.626;9.362;2023-07-20T05:04:22;18.10;80.40
5647;DHT22;2845;48.626;9.362;2023-07-20T05:06:56;18.20;79.90
5647;DHT22;2845;48.626;9.362;2023-07-20T05:09:32;18.20;79.80
5647;DHT22;2845;48.626;9.362;2023-07-20T05:12:07;18.30;79.80
5647;DHT22;2845;48.626;9.362;2023-07-20T05:14:41;18.40;79.60
5647;DHT22;2845;48.626;9.362;2023-07-20T05:17:15;18.50;79.60
5647;DHT22;2845;48.626;9.362;2023-07-20T05:19:49;18.60;80.00
5647;DHT22;2845;48.626;9.362;2023-07-20T05:22:24;18.90;79.80
5647;DHT22;2845;48.626;9.362;2023-07-20T05:24:59;19.00;79.80
5647;DHT22;2845;48.626;9.362;2023-07-20T05:27:33;19.00;79.40
5647;DHT22;2845;48.626;9.362;2023-07-20T05:30:08;19.00;79.10
5647;DHT22;2845;48.626;9.362;2023-07-20T05:32:43;19.00;79.00
5647;DHT22;2845;48.626;9.362;2023-07-20T05:35:19;19.00;78.70
5647;DHT22;2845;48.626;9.362;2023-07-20T05:37:53;19.20;78.50
5647;DHT22;2845;48.626;9.362;2023-07-20T05:40:29;19.30;78.00
5647;DHT22;2845;48.626;9.362;2023-07-20T05:43:03;19.40;78.00
5647;DHT22;2845;48.626;9.362;2023-07-20T05:45:37;19.50;77.80
5647;DHT22;2845;48.626;9.362;2023-07-20T05:48:11;19.50;77.70
5647;DHT22;2845;48.626;9.362;2023-07-20T05:50:46;19.60;77.70
5647;DHT22;2845;48.626;9.362;2023-07-20T05:53:20;19.70;77.40
5647;DHT22;2845;48.626;9.362;2023-07-20T05:55:55;19.90;76.90
5647;DHT22;2845;48.626;9.362;2023-07-20T05:58:30;20.00;76.40
5647;DHT22;2845;48.626;9.362;2023-07-20T06:01:04;20.10;76.30
5647;DHT22;2845;48.626;9.362;2023-07-20T06:03:39;18.60;75.30
5647;DHT22;2845;48.626;9.362;2023-07-20T06:06:13;20.30;75.70
5647;DHT22;2845;48.626;9.362;2023-07-20T06:08:48;20.50;74.70
5647;DHT22;2845;48.626;9.362;2023-07-20T06:11:23;20.50;75.00
5647;DHT22;2845;48.626;9.362;2023-07-20T06:13:57;20.70;74.90
5647;DHT22;2845;48.626;9.362;2023-07-20T06:16:32;20.80;74.50
5647;DHT22;2845;48.626;9.362;2023-07-20T06:19:06;20.90;74.50
5647;DHT22;2845;48.626;9.362;2023-07-20T06:21:40;21.00;74.20
5647;DHT22;2845;48.626;9.362;2023-07-20T06:24:14;21.20;73.60
5647;DHT22;2845;48.626;9.362;2023-07-20T06:26:50;21.30;73.60
5647;DHT22;2845;48.626;9.362;2023-07-20T06:29:24;21.40;73.50
5647;DHT22;2845;48.626;9.362;2023-07-20T06:31:58;21.50;73.30
5647;DHT22;2845;48.626;9.362;2023-07-20T06:34:32;21.50;73.00
5647;DHT22;2845;48.626;9.362;2023-07-20T06:37:09;21.60;73.20
5647;DHT22;2845;48.626;9.362;2023-07-20T06:39:43;21.50;73.00
5647;DHT22;2845;48.626;9.362;2023-07-20T06:42:22;21.50;72.90
5647;DHT22;2845;48.626;9.362;2023-07-20T06:44:56;21.70;73.10
5647;DHT22;2845;48.626;9.362;2023-07-20T06:47:30;21.60;73.10
5647;DHT22;2845;48.626;9.362;2023-07-20T06:50:05;21.70;72.80
5647;DHT22;2845;48.626;9.362;2023-07-20T06:52:41;21.80;72.60
5647;DHT22;2845;48.626;9.362;2023-07-20T06:55:15;21.90;72.20
5647;DHT22;2845;48.626;9.362;2023-07-20T06:57:57;22.10;71.70
5647;DHT22;2845;48.626;9.362;2023-07-20T07:00:31;22.30;71.40
5647;DHT22;2845;48.626;9.362;2023-07-20T07:03:05;19.20;69.50
5647;DHT22;2845;48.626;9.362;2023-07-20T07:05:40;22.60;71.10
5647;DHT22;2845;48.626;9.362;2023-07-20T07:08:14;22.70;70.80
5647;DHT22;2845;48.626;9.362;2023-07-20T07:10:48;22.80;70.50
5647;DHT22;2845;48.626;9.362;2023-07-20T07:13:23;22.80;70.30
5647;DHT22;2845;48.626;9.362;2023-07-20T07:15:58;22.80;70.30
5647;DHT22;2845;48.626;9.362;2023-07-20T07:18:32;22.90;70.20
5647;DHT22;2845;48.626;9.362;2023-07-20T07:21:08;23.10;70.10
5647;DHT22;2845;48.626;9.362;2023-07-20T07:23:42;23.30;69.70
5647;DHT22;2845;48.626;9.362;2023-07-20T07:26:16;23.50;69.60
5647;DHT22;2845;48.626;9.362;2023-07-20T07:28:52;23.80;69.40
5647;DHT22;2845;48.626;9.362;2023-07-20T07:31:26;23.90;69.10
5647;DHT22;2845;48.626;9.362;2023-07-20T07:34:00;23.90;68.70
5647;DHT22;2845;48.626;9.362;2023-07-20T07:36:35;23.80;68.70
5647;DHT22;2845;48.626;9.362;2023-07-20T07:39:09;23.80;68.70
5647;DHT22;2845;48.626;9.362;2023-07-20T07:41:46;23.70;68.70
5647;DHT22;2845;48.626;9.362;2023-07-20T07:44:21;24.20;68.90
5647;DHT22;2845;48.626;9.362;2023-07-20T07:46:55;23.50;68.60
5647;DHT22;2845;48.626;9.362;2023-07-20T07:49:30;23.40;68.70
5647;DHT22;2845;48.626;9.362;2023-07-20T07:52:05;23.30;69.20
5647;DHT22;2845;48.626;9.362;2023-07-20T07:54:40;23.30;69.70
5647;DHT22;2845;48.626;9.362;2023-07-20T07:57:14;23.20;69.20
5647;DHT22;2845;48.626;9.362;2023-07-20T07:59:50;23.20;69.50
5647;DHT22;2845;48.626;9.362;2023-07-20T08:02:24;22.50;69.20
5647;DHT22;2845;48.626;9.362;2023-07-20T08:04:58;23.10;69.70
5647;DHT22;2845;48.626;9.362;2023-07-20T08:07:33;23.40;69.50
5647;DHT22;2845;48.626;9.362;2023-07-20T08:10:08;23.20;69.20
5647;DHT22;2845;48.626;9.362;2023-07-20T08:12:42;23.40;69.00
5647;DHT22;2845;48.626;9.362;2023-07-20T08:15:18;23.60;68.80
5647;DHT22;2845;48.626;9.362;2023-07-20T08:17:55;23.70;68.50
5647;DHT22;2845;48.626;9.362;2023-07-20T08:20:30;24.50;68.60
5647;DHT22;2845;48.626;9.362;2023-07-20T08:23:05;23.80;68.30
5647;DHT22;2845;48.626;9.362;2023-07-20T08:25:39;27.00;69.70
5647;DHT22;2845;48.626;9.362;2023-07-20T08:28:16;24.00;67.70
5647;DHT22;2845;48.626;9.362;2023-07-20T08:30:53;25.40;68.00
5647;DHT22;2845;48.626;9.362;2023-07-20T08:33:29;24.40;67.40
5647;DHT22;2845;48.626;9.362;2023-07-20T08:36:06;25.80;67.30
5647;DHT22;2845;48.626;9.362;2023-07-20T08:38:44;24.80;66.40
5647;DHT22;2845;48.626;9.362;2023-07-20T08:41:18;27.60;67.30
5647;DHT22;2845;48.626;9.362;2023-07-20T08:43:54;25.00;65.90
5647;DHT22;2845;48.626;9.362;2023-07-20T08:46:33;25.00;66.10
5647;DHT22;2845;48.626;9.362;2023-07-20T08:49:10;24.70;66.50
5647;DHT22;2845;48.626;9.362;2023-07-20T08:51:45;24.20;66.50
5647;DHT22;2845;48.626;9.362;2023-07-20T08:54:20;24.20;67.20
5647;DHT22;2845;48.626;9.362;2023-07-20T08:56:56;23.90;67.40
5647;DHT22;2845;48.626;9.362;2023-07-20T08:59:31;24.50;67.30
5647;DHT22;2845;48.626;9.362;2023-07-20T09:02:08;24.00;66.40
5647;DHT22;2845;48.626;9.362;2023-07-20T09:04:51;24.10;66.00
5647;DHT22;2845;48.626;9.362;2023-07-20T09:07:26;24.30;66.50
5647;DHT22;2845;48.626;9.362;2023-07-20T09:10:00;27.10;67.80
5647;DHT22;2845;48.626;9.362;2023-07-20T09:12:40;24.60;65.40
5647;DHT22;2845;48.626;9.362;2023-07-20T09:15:15;24.60;65.20
5647;DHT22;2845;48.626;9.362;2023-07-20T09:17:52;27.40;66.70
5647;DHT22;2845;48.626;9.362;2023-07-20T09:20:27;26.10;65.60
5647;DHT22;2845;48.626;9.362;2023-07-20T09:23:05;28.00;66.50
5647;DHT22;2845;48.626;9.362;2023-07-20T09:25:40;25.30;63.90
5647;DHT22;2845;48.626;9.362;2023-07-20T09:28:15;25.40;63.70
5647;DHT22;2845;48.626;9.362;2023-07-20T09:30:49;25.30;64.40
5647;DHT22;2845;48.626;9.362;2023-07-20T09:33:27;25.30;64.60
5647;DHT22;2845;48.626;9.362;2023-07-20T09:36:02;25.60;64.00
5647;DHT22;2845;48.626;9.362;2023-07-20T09:38:55;26.00;63.50
5647;DHT22;2845;48.626;9.362;2023-07-20T09:41:39;26.20;64.10
5647;DHT22;2845;48.626;9.362;2023-07-20T09:44:19;26.20;63.10
5647;DHT22;2845;48.626;9.362;2023-07-20T09:46:56;25.90;62.60
5647;DHT22;2845;48.626;9.362;2023-07-20T09:49:34;25.60;63.20
5647;DHT22;2845;48.626;9.362;2023-07-20T09:52:16;28.10;64.80
5647;DHT22;2845;48.626;9.362;2023-07-20T09:55:12;24.90;63.90
5647;DHT22;2845;48.626;9.362;2023-07-20T09:57:47;27.40;66.30
5647;DHT22;2845;48.626;9.362;2023-07-20T10:00:22;25.10;64.90
5647;DHT22;2845;48.626;9.362;2023-07-20T10:03:01;24.70;64.10
5647;DHT22;2845;48.626;9.362;2023-07-20T10:05:43;24.90;64.10
5647;DHT22;2845;48.626;9.362;2023-07-20T10:08:19;26.70;65.00
5647;DHT22;2845;48.626;9.362;2023-07-20T10:10:59;26.30;64.80
5647;DHT22;2845;48.626;9.362;2023-07-20T10:13:38;26.40;64.70
5647;DHT22;2845;48.626;9.362;2023-07-20T10:16:18;25.10;63.00
5647;DHT22;2845;48.626;9.362;2023-07-20T10:19:03;25.60;63.70
5647;DHT22;2845;48.626;9.362;2023-07-20T10:21:57;25.40;63.50
5647;DHT22;2845;48.626;9.362;2023-07-20T10:24:36;25.70;62.80
5647;DHT22;2845;48.626;9.362;2023-07-20T10:27:13;26.00;62.40
5647;DHT22;2845;48.626;9.362;2023-07-20T10:29:48;29.40;63.60
5647;DHT22;2845;48.626;9.362;2023-07-20T10:32:23;26.70;61.50
5647;DHT22;2845;48.626;9.362;2023-07-20T10:34:57;26.80;61.70
5647;DHT22;2845;48.626;9.362;2023-07-20T10:37:51;26.80;60.20
5647;DHT22;2845;48.626;9.362;2023-07-20T10:40:30;28.10;60.70
5647;DHT22;2845;48.626;9.362;2023-07-20T10:43:06;27.10;59.70
5647;DHT22;2845;48.626;9.362;2023-07-20T10:45:42;27.00;58.40
5647;DHT22;2845;48.626;9.362;2023-07-20T10:48:23;26.90;58.80
5647;DHT22;2845;48.626;9.362;2023-07-20T10:51:14;26.70;59.00
5647;DHT22;2845;48.626;9.362;2023-07-20T10:53:56;26.90;59.40
5647;DHT22;2845;48.626;9.362;2023-07-20T10:56:31;26.30;59.30
5647;DHT22;2845;48.626;9.362;2023-07-20T10:59:18;26.20;60.00
5647;DHT22;2845;48.626;9.362;2023-07-20T11:01:55;26.00;58.90
5647;DHT22;2845;48.626;9.362;2023-07-20T11:04:38;25.70;60.40
5647;DHT22;2845;48.626;9.362;2023-07-20T11:07:14;25.60;59.30
5647;DHT22;2845;48.626;9.362;2023-07-20T11:09:50;25.60;59.80
5647;DHT22;2845;48.626;9.362;2023-07-20T11:12:28;25.50;60.10
5647;DHT22;2845;48.626;9.362;2023-07-20T11:15:02;25.50;59.20
5647;DHT22;2845;48.626;9.362;2023-07-20T11:17:37;25.60;59.30
5647;DHT22;2845;48.626;9.362;2023-07-20T11:20:12;25.80;59.50
5647;DHT22;2845;48.626;9.362;2023-07-20T11:22:50;27.40;59.10
5647;DHT22;2845;48.626;9.362;2023-07-20T11:25:36;26.70;58.00
5647;DHT22;2845;48.626;9.362;2023-07-20T11:28:11;26.70;57.90
5647;DHT22;2845;48.626;9.362;2023-07-20T11:30:51;27.10;59.10
5647;DHT22;2845;48.626;9.362;2023-07-20T11:33:27;27.20;57.70
5647;DHT22;2845;48.626;9.362;2023-07-20T11:36:02;26.30;58.80
5647;DHT22;2845;48.626;9.362;2023-07-20T11:38:58;26.20;58.70
5647;DHT22;2845;48.626;9.362;2023-07-20T11:41:34;26.20;58.80
5647;DHT22;2845;48.626;9.362;2023-07-20T11:44:10;26.50;55.90
5647;DHT22;2845;48.626;9.362;2023-07-20T11:46:46;26.40;56.10
5647;DHT22;2845;48.626;9.362;2023-07-20T11:49:20;26.70;56.80
5647;DHT22;2845;48.626;9.362;2023-07-20T11:51:55;27.00;55.10
5647;DHT22;2845;48.626;9.362;2023-07-20T11:54:30;27.60;56.10
5647;DHT22;2845;48.626;9.362;2023-07-20T11:57:06;28.00;56.50
5647;DHT22;2845;48.626;9.362;2023-07-20T11:59:52;28.10;54.30
5647;DHT22;2845;48.626;9.362;2023-07-20T12:02:28;28.30;54.30
5647;DHT22;2845;48.626;9.362;2023-07-20T12:05:03;28.40;54.10
5647;DHT22;2845;48.626;9.362;2023-07-20T12:07:38;28.20;53.00
5647;DHT22;2845;48.626;9.362;2023-07-20T12:10:13;28.00;53.70
5647;DHT22;2845;48.626;9.362;2023-07-20T12:12:48;28.00;55.30
5647;DHT22;2845;48.626;9.362;2023-07-20T12:15:23;27.70;54.60
5647;DHT22;2845;48.626;9.362;2023-07-20T12:18:00;27.80;54.30
5647;DHT22;2845;48.626;9.362;2023-07-20T12:20:36;27.70;55.30
5647;DHT22;2845;48.626;9.362;2023-07-20T12:23:12;27.70;55.20
5647;DHT22;2845;48.626;9.362;2023-07-20T12:25:47;28.10;54.00
5647;DHT22;2845;48.626;9.362;2023-07-20T12:28:22;28.20;54.20
5647;DHT22;2845;48.626;9.362;2023-07-20T12:30:56;28.20;53.20
5647;DHT22;2845;48.626;9.362;2023-07-20T12:33:30;28.20;52.60
5647;DHT22;2845;48.626;9.362;2023-07-20T12:36:05;28.30;53.60
5647;DHT22;2845;48.626;9.362;2023-07-20T12:38:39;28.10;53.80
5647;DHT22;2845;48.626;9.362;2023-07-20T12:41:14;27.90;53.20
5647;DHT22;2845;48.626;9.362;2023-07-20T12:43:50;27.60;54.80
5647;DHT22;2845;48.626;9.362;2023-07-20T12:46:26;27.50;52.70
5647;DHT22;2845;48.626;9.362;2023-07-20T12:49:02;27.50;54.50
5647;DHT22;2845;48.626;9.362;2023-07-20T12:51:36;27.80;54.50
5647;DHT22;2845;48.626;9.362;2023-07-20T12:54:10;27.70;55.40
5647;DHT22;2845;48.626;9.362;2023-07-20T12:56:44;28.00;55.90
5647;DHT22;2845;48.626;9.362;2023-07-20T12:59:22;28.20;53.10
5647;DHT22;2845;48.626;9.362;2023-07-20T13:01:56;28.30;53.40
5647;DHT22;2845;48.626;9.362;2023-07-20T13:04:31;28.00;53.10
5647;DHT22;2845;48.626;9.362;2023-07-20T13:07:07;27.70;53.10
5647;DHT22;2845;48.626;9.362;2023-07-20T13:09:46;27.50;54.10
5647;DHT22;2845;48.626;9.362;2023-07-20T13:12:21;27.30;53.70
5647;DHT22;2845;48.626;9.362;2023-07-20T13:14:56;27.20;54.80
5647;DHT22;2845;48.626;9.362;2023-07-20T13:17:33;27.40;55.00
5647;DHT22;2845;48.626;9.362;2023-07-20T13:20:09;27.50;53.10
5647;DHT22;2845;48.626;9.362;2023-07-20T13:22:44;27.70;52.60
5647;DHT22;2845;48.626;9.362;2023-07-20T13:25:18;28.50;54.10
5647;DHT22;2845;48.626;9.362;2023-07-20T13:27:54;27.80;51.90
5647;DHT22;2845;48.626;9.362;2023-07-20T13:30:29;27.70;53.10
5647;DHT22;2845;48.626;9.362;2023-07-20T13:33:04;27.60;53.20
5647;DHT22;2845;48.626;9.362;2023-07-20T13:35:39;27.50;54.30
5647;DHT22;2845;48.626;9.362;2023-07-20T13:38:17;27.70;52.70
5647;DHT22;2845;48.626;9.362;2023-07-20T13:40:51;28.00;52.00
5647;DHT22;2845;48.626;9.362;2023-07-20T13:43:25;28.10;53.00
5647;DHT22;2845;48.626;9.362;2023-07-20T13:46:01;28.20;51.70
5647;DHT22;2845;48.626;9.362;2023-07-20T13:48:35;28.40;51.90
5647;DHT22;2845;48.626;9.362;2023-07-20T13:51:09;28.50;52.00
5647;DHT22;2845;48.626;9.362;2023-07-20T13:53:45;28.70;52.30
5647;DHT22;2845;48.626;9.362;2023-07-20T13:56:22;28.50;52.40
5647;DHT22;2845;48.626;9.362;2023-07-20T13:58:57;28.40;51.50
5647;DHT22;2845;48.626;9.362;2023-07-20T14:01:32;28.20;51.80
5647;DHT22;2845;48.626;9.362;2023-07-20T14:04:10;27.90;51.80
5647;DHT22;2845;48.626;9.362;2023-07-20T14:06:45;27.70;53.20
5647;DHT22;2845;48.626;9.362;2023-07-20T14:09:20;27.70;53.50
5647;DHT22;2845;48.626;9.362;2023-07-20T14:11:54;27.80;52.70
5647;DHT22;2845;48.626;9.362;2023-07-20T14:14:31;28.00;54.00
5647;DHT22;2845;48.626;9.362;2023-07-20T14:17:06;27.80;53.10
5647;DHT22;2845;48.626;9.362;2023-07-20T14:19:41;27.90;52.90
5647;DHT22;2845;48.626;9.362;2023-07-20T14:22:15;28.10;53.10
5647;DHT22;2845;48.626;9.362;2023-07-20T14:24:51;28.40;52.30
5647;DHT22;2845;48.626;9.362;2023-07-20T14:27:25;28.60;52.10
5647;DHT22;2845;48.626;9.362;2023-07-20T14:30:00;29.00;51.20
5647;DHT22;2845;48.626;9.362;2023-07-20T14:32:35;29.00;49.10
5647;DHT22;2845;48.626;9.362;2023-07-20T14:35:11;29.10;51.00
5647;DHT22;2845;48.626;9.362;2023-07-20T14:37:46;29.40;50.30
5647;DHT22;2845;48.626;9.362;2023-07-20T14:40:21;29.60;50.70
5647;DHT22;2845;48.626;9.362;2023-07-20T14:42:55;29.60;49.90
5647;DHT22;2845;48.626;9.362;2023-07-20T14:45:29;29.60;49.50
5647;DHT22;2845;48.626;9.362;2023-07-20T14:48:05;29.30;49.50
5647;DHT22;2845;48.626;9.362;2023-07-20T14:50:40;28.70;49.70
5647;DHT22;2845;48.626;9.362;2023-07-20T14:53:15;28.20;50.80
5647;DHT22;2845;48.626;9.362;2023-07-20T14:55:50;27.90;50.30
5647;DHT22;2845;48.626;9.362;2023-07-20T14:58:25;28.00;51.90
5647;DHT22;2845;48.626;9.362;2023-07-20T15:00:59;27.80;50.50
5647;DHT22;2845;48.626;9.362;2023-07-20T15:03:34;27.60;50.10
5647;DHT22;2845;48.626;9.362;2023-07-20T15:06:10;27.60;51.20
5647;DHT22;2845;48.626;9.362;2023-07-20T15:08:45;28.00;51.10
5647;DHT22;2845;48.626;9.362;2023-07-20T15:11:19;28.10;51.60
5647;DHT22;2845;48.626;9.362;2023-07-20T15:13:53;28.20;50.50
5647;DHT22;2845;48.626;9.362;2023-07-20T15:16:27;28.00;49.60
5647;DHT22;2845;48.626;9.362;2023-07-20T15:19:03;27.90;48.70
5647;DHT22;2845;48.626;9.362;2023-07-20T15:21:37;27.90;49.80
5647;DHT22;2845;48.626;9.362;2023-07-20T15:24:11;28.50;50.00
5647;DHT22;2845;48.626;9.362;2023-07-20T15:26:45;29.30;50.20
5647;DHT22;2845;48.626;9.362;2023-07-20T15:29:19;29.90;49.50
5647;DHT22;2845;48.626;9.362;2023-07-20T15:31:57;30.20;49.00
5647;DHT22;2845;48.626;9.362;2023-07-20T15:34:33;29.90;49.50
5647;DHT22;2845;48.626;9.362;2023-07-20T15:37:08;29.40;48.80
5647;DHT22;2845;48.626;9.362;2023-07-20T15:39:42;28.80;48.00
5647;DHT22;2845;48.626;9.362;2023-07-20T15:42:17;28.20;50.50
5647;DHT22;2845;48.626;9.362;2023-07-20T15:44:52;27.60;48.50
5647;DHT22;2845;48.626;9.362;2023-07-20T15:47:26;27.30;49.70
5647;DHT22;2845;48.626;9.362;2023-07-20T15:50:02;27.10;50.90
5647;DHT22;2845;48.626;9.362;2023-07-20T15:52:36;27.00;51.30
5647;DHT22;2845;48.626;9.362;2023-07-20T15:55:13;27.00;51.10
5647;DHT22;2845;48.626;9.362;2023-07-20T15:57:48;26.90;50.20
5647;DHT22;2845;48.626;9.362;2023-07-20T16:00:22;27.30;52.00
5647;DHT22;2845;48.626;9.362;2023-07-20T16:02:57;26.70;50.30
5647;DHT22;2845;48.626;9.362;2023-07-20T16:05:33;26.60;51.50
5647;DHT22;2845;48.626;9.362;2023-07-20T16:08:07;26.50;50.20
5647;DHT22;2845;48.626;9.362;2023-07-20T16:10:42;26.40;50.00
5647;DHT22;2845;48.626;9.362;2023-07-20T16:13:16;26.50;49.70
5647;DHT22;2845;48.626;9.362;2023-07-20T16:15:52;26.20;50.00
5647;DHT22;2845;48.626;9.362;2023-07-20T16:18:26;26.10;50.30
5647;DHT22;2845;48.626;9.362;2023-07-20T16:21:02;26.00;51.20
5647;DHT22;2845;48.626;9.362;2023-07-20T16:23:36;26.10;50.50
5647;DHT22;2845;48.626;9.362;2023-07-20T16:26:10;26.10;50.70
5647;DHT22;2845;48.626;9.362;2023-07-20T16:28:44;26.00;50.00
5647;DHT22;2845;48.626;9.362;2023-07-20T16:31:18;26.00;51.50
5647;DHT22;2845;48.626;9.362;2023-07-20T16:33:52;26.00;50.30
5647;DHT22;2845;48.626;9.362;2023-07-20T16:36:39;26.40;51.60
5647;DHT22;2845;48.626;9.362;2023-07-20T16:39:17;26.00;51.10
5647;DHT22;2845;48.626;9.362;2023-07-20T16:41:54;26.00;49.60
5647;DHT22;2845;48.626;9.362;2023-07-20T16:44:31;26.00;49.90
5647;DHT22;2845;48.626;9.362;2023-07-20T16:47:06;25.90;51.00
5647;DHT22;2845;48.626;9.362;2023-07-20T16:49:41;25.80;50.10
5647;DHT22;2845;48.626;9.362;2023-07-20T16:52:17;25.80;50.00
5647;DHT22;2845;48.626;9.362;2023-07-20T16:54:51;25.80;50.60
5647;DHT22;2845;48.626;9.362;2023-07-20T16:57:25;25.50;50.00
5647;DHT22;2845;48.626;9.362;2023-07-20T17:00:00;25.40;51.00